createdAt,value
2016-12-06T00:00:00.099Z,17.88
2016-12-06T00:00:28.261Z,17.95
2016-12-06T00:00:56.507Z,17.88
2016-12-06T00:01:24.718Z,17.87
2016-12-06T00:01:53.053Z,17.9
2016-12-06T00:02:21.286Z,17.81
2016-12-06T00:02:49.463Z,17.81
2016-12-06T00:03:17.825Z,17.81
2016-12-06T00:03:46.121Z,17.8
2016-12-06T00:04:14.243Z,17.8
2016-12-06T00:04:42.488Z,17.8
2016-12-06T00:05:10.708Z,17.81
2016-12-06T00:05:38.919Z,17.84
2016-12-06T00:06:07.177Z,17.84
2016-12-06T00:06:35.287Z,17.84
2016-12-06T00:07:03.495Z,17.88
2016-12-06T00:07:31.721Z,17.96
2016-12-06T00:08:00.037Z,17.9
2016-12-06T00:08:28.031Z,17.95
2016-12-06T00:08:56.375Z,17.95
2016-12-06T00:09:24.706Z,17.99
2016-12-06T00:09:52.907Z,18.02
2016-12-06T00:10:20.998Z,18.03
2016-12-06T00:10:49.333Z,17.98
2016-12-06T00:11:17.658Z,18.01
2016-12-06T00:11:45.879Z,18.06
2016-12-06T00:12:14.008Z,18.01
2016-12-06T00:12:42.201Z,17.99
2016-12-06T00:13:10.500Z,18.02
2016-12-06T00:13:38.735Z,18.03
2016-12-06T00:14:44.253Z,18.03
2016-12-06T00:15:12.542Z,18.01
2016-12-06T00:15:40.566Z,18.11
2016-12-06T00:16:08.554Z,18.02
2016-12-06T00:16:36.750Z,18.08
2016-12-06T00:17:04.937Z,18.02
2016-12-06T00:17:32.983Z,17.95
2016-12-06T00:18:01.188Z,17.9
2016-12-06T00:18:29.266Z,17.88
2016-12-06T00:18:57.478Z,17.88
2016-12-06T00:19:25.628Z,17.87
2016-12-06T00:19:53.795Z,17.84
2016-12-06T00:20:22.049Z,17.86
2016-12-06T00:20:50.362Z,17.79
2016-12-06T00:21:18.450Z,17.9
2016-12-06T00:21:46.603Z,17.79
2016-12-06T00:22:14.896Z,17.84
2016-12-06T00:22:43.075Z,17.79
2016-12-06T00:23:11.353Z,17.92
2016-12-06T00:23:39.688Z,17.87
2016-12-06T00:24:07.752Z,17.76
2016-12-06T00:24:36.030Z,17.84
2016-12-06T00:25:04.325Z,17.77
2016-12-06T00:25:32.529Z,17.81
2016-12-06T00:26:00.702Z,17.68
2016-12-06T00:26:28.950Z,17.63
2016-12-06T00:26:57.300Z,17.65
2016-12-06T00:27:25.536Z,17.69
2016-12-06T00:27:53.853Z,17.6
2016-12-06T00:28:22.055Z,17.62
2016-12-06T00:28:50.269Z,17.62
2016-12-06T00:29:18.468Z,17.58
2016-12-06T00:29:46.610Z,17.62
2016-12-06T00:30:14.965Z,17.58
2016-12-06T00:30:43.246Z,17.62
2016-12-06T00:31:11.574Z,17.63
2016-12-06T00:31:39.794Z,17.63
2016-12-06T00:32:08.241Z,17.58
2016-12-06T00:32:36.429Z,17.63
2016-12-06T00:33:04.565Z,17.69
2016-12-06T00:33:32.822Z,17.65
2016-12-06T00:34:00.967Z,17.65
2016-12-06T00:34:29.280Z,17.63
2016-12-06T00:34:57.424Z,17.6
2016-12-06T00:35:25.639Z,17.54
2016-12-06T00:35:53.738Z,17.54
2016-12-06T00:36:22.113Z,17.49
2016-12-06T00:36:50.267Z,17.55
2016-12-06T00:37:18.461Z,17.49
2016-12-06T00:37:46.635Z,17.52
2016-12-06T00:38:14.776Z,17.54
2016-12-06T00:38:43.129Z,17.52
2016-12-06T00:39:11.376Z,17.49
2016-12-06T00:39:39.582Z,17.49
2016-12-06T00:40:07.889Z,17.5
2016-12-06T00:40:36.176Z,17.5
2016-12-06T00:41:04.486Z,17.54
2016-12-06T00:41:32.583Z,17.43
2016-12-06T00:42:00.893Z,17.54
2016-12-06T00:42:49.496Z,17.43
2016-12-06T00:43:17.568Z,17.39
2016-12-06T00:43:45.664Z,17.43
2016-12-06T00:44:13.899Z,17.43
2016-12-06T00:44:42.262Z,17.45
2016-12-06T00:45:10.407Z,17.4
2016-12-06T00:45:38.539Z,17.36
2016-12-06T00:46:06.743Z,17.4
2016-12-06T00:46:34.895Z,17.43
2016-12-06T00:47:02.996Z,17.36
2016-12-06T00:47:31.280Z,17.38
2016-12-06T00:47:59.528Z,17.45
2016-12-06T00:48:27.754Z,17.43
2016-12-06T00:48:55.978Z,17.5
2016-12-06T00:49:24.169Z,17.5
2016-12-06T00:49:52.616Z,17.54
2016-12-06T00:50:20.776Z,17.52
2016-12-06T00:50:49.075Z,17.54
2016-12-06T00:51:17.258Z,17.54
2016-12-06T00:51:45.459Z,17.55
2016-12-06T00:52:13.677Z,17.6
2016-12-06T00:52:41.862Z,17.63
2016-12-06T00:53:10.182Z,17.6
2016-12-06T00:53:38.523Z,17.62
2016-12-06T00:54:06.607Z,17.55
2016-12-06T00:54:34.854Z,17.58
2016-12-06T00:55:03.160Z,17.5
2016-12-06T00:55:31.469Z,17.47
2016-12-06T00:55:59.619Z,17.57
2016-12-06T00:56:27.714Z,17.5
2016-12-06T00:56:55.937Z,17.54
2016-12-06T00:57:24.092Z,17.5
2016-12-06T00:57:52.354Z,17.54
2016-12-06T00:58:20.594Z,17.45
2016-12-06T00:58:48.850Z,17.45
2016-12-06T00:59:17.006Z,17.43
2016-12-06T00:59:45.199Z,17.45
2016-12-06T01:00:13.508Z,17.4
2016-12-06T01:00:41.808Z,17.39
2016-12-06T01:01:10.110Z,17.36
2016-12-06T01:01:38.214Z,17.32
2016-12-06T01:02:06.521Z,17.32
2016-12-06T01:02:34.822Z,17.39
2016-12-06T01:03:03.016Z,17.35
2016-12-06T01:03:31.328Z,17.36
2016-12-06T01:03:59.565Z,17.42
2016-12-06T01:04:27.662Z,17.38
2016-12-06T01:04:56.151Z,17.39
2016-12-06T01:05:24.400Z,17.39
2016-12-06T01:05:52.696Z,17.46
2016-12-06T01:07:03.842Z,17.31
2016-12-06T01:07:31.931Z,17.32
2016-12-06T01:08:00.179Z,17.32
2016-12-06T01:08:28.283Z,17.35
2016-12-06T01:08:56.425Z,17.25
2016-12-06T01:09:24.745Z,17.25
2016-12-06T01:09:52.952Z,17.28
2016-12-06T01:10:21.245Z,17.31
2016-12-06T01:10:49.503Z,17.3
2016-12-06T01:11:17.771Z,17.31
2016-12-06T01:11:46.001Z,17.36
2016-12-06T01:12:14.289Z,17.3
2016-12-06T01:12:42.534Z,17.36
2016-12-06T01:13:10.587Z,17.36
2016-12-06T01:13:38.721Z,17.36
2016-12-06T01:14:06.890Z,17.36
2016-12-06T01:14:35.093Z,17.39
2016-12-06T01:15:03.475Z,17.31
2016-12-06T01:15:31.511Z,17.35
2016-12-06T01:15:59.661Z,17.36
2016-12-06T01:16:27.698Z,17.4
2016-12-06T01:16:56.019Z,17.36
2016-12-06T01:17:24.129Z,17.43
2016-12-06T01:17:52.186Z,17.45
2016-12-06T01:18:20.395Z,17.42
2016-12-06T01:18:48.616Z,17.35
2016-12-06T01:19:16.723Z,17.35
2016-12-06T01:19:45.011Z,17.32
2016-12-06T01:20:13.393Z,17.35
2016-12-06T01:20:41.597Z,17.38
2016-12-06T01:21:09.733Z,17.35
2016-12-06T01:21:37.981Z,17.46
2016-12-06T01:22:06.200Z,17.43
2016-12-06T01:22:34.253Z,17.43
2016-12-06T01:23:02.551Z,17.42
2016-12-06T01:23:30.873Z,17.46
2016-12-06T01:23:58.955Z,17.49
2016-12-06T01:24:27.236Z,17.55
2016-12-06T01:24:55.472Z,17.52
2016-12-06T01:25:23.829Z,17.5
2016-12-06T01:25:52.057Z,17.55
2016-12-06T01:26:20.211Z,17.6
2016-12-06T01:26:48.319Z,17.65
2016-12-06T01:27:16.569Z,17.58
2016-12-06T01:27:44.783Z,17.6
2016-12-06T01:28:13.091Z,17.62
2016-12-06T01:28:41.338Z,17.62
2016-12-06T01:29:09.548Z,17.58
2016-12-06T01:29:37.856Z,17.54
2016-12-06T01:30:06.065Z,17.54
2016-12-06T01:30:34.337Z,17.52
2016-12-06T01:31:02.608Z,17.49
2016-12-06T01:31:30.838Z,17.5
2016-12-06T01:31:59.135Z,17.49
2016-12-06T01:32:27.251Z,17.52
2016-12-06T01:32:55.443Z,17.46
2016-12-06T01:33:23.674Z,17.42
2016-12-06T01:33:51.985Z,17.47
2016-12-06T01:34:20.032Z,17.4
2016-12-06T01:34:48.321Z,17.45
2016-12-06T01:35:16.546Z,17.38
2016-12-06T01:35:44.800Z,17.32
2016-12-06T01:36:13.017Z,17.31
2016-12-06T01:36:41.249Z,17.38
2016-12-06T01:37:09.391Z,17.36
2016-12-06T01:37:37.618Z,17.31
2016-12-06T01:38:05.991Z,17.35
2016-12-06T01:38:34.263Z,17.24
2016-12-06T01:39:02.430Z,17.22
2016-12-06T01:39:30.588Z,17.2
2016-12-06T01:39:58.915Z,17.13
2016-12-06T01:40:27.408Z,17.12
2016-12-06T01:40:55.558Z,17.1
2016-12-06T01:41:23.753Z,17.13
2016-12-06T01:41:51.887Z,17.1
2016-12-06T01:42:20.027Z,17.09
2016-12-06T01:42:48.094Z,17.06
2016-12-06T01:43:16.316Z,17.06
2016-12-06T01:43:44.600Z,17.03
2016-12-06T01:44:12.715Z,16.92
2016-12-06T01:44:40.950Z,16.91
2016-12-06T01:45:09.205Z,16.88
2016-12-06T01:45:37.548Z,16.95
2016-12-06T01:46:05.878Z,16.99
2016-12-06T01:46:34.056Z,16.95
2016-12-06T01:47:02.296Z,16.9
2016-12-06T01:47:30.644Z,16.95
2016-12-06T01:47:58.883Z,16.87
2016-12-06T01:48:27.205Z,16.88
2016-12-06T01:48:55.318Z,16.85
2016-12-06T01:49:23.470Z,16.85
2016-12-06T01:49:51.704Z,16.87
2016-12-06T01:50:20.154Z,16.85
2016-12-06T01:50:48.343Z,16.81
2016-12-06T01:51:16.669Z,16.8
2016-12-06T01:51:44.881Z,16.88
2016-12-06T01:52:13.166Z,16.85
2016-12-06T01:52:41.213Z,16.84
2016-12-06T01:53:09.315Z,16.91
2016-12-06T01:53:37.663Z,16.91
2016-12-06T01:54:05.907Z,16.95
2016-12-06T01:54:54.427Z,17.02
2016-12-06T01:55:22.704Z,16.91
2016-12-06T01:55:51.051Z,17.05
2016-12-06T01:56:19.333Z,17.09
2016-12-06T01:56:47.426Z,17.1
2016-12-06T01:57:15.671Z,17.17
2016-12-06T01:57:43.794Z,17.18
2016-12-06T01:58:12.067Z,17.24
2016-12-06T01:58:40.068Z,17.22
2016-12-06T01:59:08.181Z,17.2
2016-12-06T01:59:36.375Z,17.27
2016-12-06T02:00:04.569Z,17.28
2016-12-06T02:00:32.888Z,17.31
2016-12-06T02:01:01.081Z,17.31
2016-12-06T02:01:29.253Z,17.32
2016-12-06T02:01:57.477Z,17.49
2016-12-06T02:02:25.509Z,17.47
2016-12-06T02:02:53.643Z,17.42
2016-12-06T02:03:21.756Z,17.54
2016-12-06T02:03:50.053Z,17.5
2016-12-06T02:04:18.362Z,17.54
2016-12-06T02:04:46.379Z,17.55
2016-12-06T02:05:14.718Z,17.55
2016-12-06T02:05:43.126Z,17.52
2016-12-06T02:06:54.343Z,17.47
2016-12-06T02:07:22.552Z,17.45
2016-12-06T02:07:50.785Z,17.39
2016-12-06T02:08:19.071Z,17.4
2016-12-06T02:09:07.699Z,17.43
2016-12-06T02:09:36.034Z,17.31
2016-12-06T02:10:04.182Z,17.36
2016-12-06T02:10:32.447Z,17.32
2016-12-06T02:11:00.674Z,17.31
2016-12-06T02:11:28.910Z,17.25
2016-12-06T02:11:57.347Z,17.24
2016-12-06T02:12:25.561Z,17.2
2016-12-06T02:12:53.888Z,17.17
2016-12-06T02:13:21.888Z,17.24
2016-12-06T02:13:50.204Z,17.18
2016-12-06T02:14:18.457Z,17.1
2016-12-06T02:14:46.361Z,17.18
2016-12-06T02:15:14.593Z,17.17
2016-12-06T02:15:42.783Z,17.15
2016-12-06T02:16:10.821Z,17.09
2016-12-06T02:16:39.114Z,17.13
2016-12-06T02:17:07.387Z,17.1
2016-12-06T02:17:35.571Z,17.06
2016-12-06T02:18:03.801Z,17.05
2016-12-06T02:18:31.993Z,17.05
2016-12-06T02:19:00.318Z,16.99
2016-12-06T02:19:28.418Z,16.9
2016-12-06T02:19:56.493Z,16.91
2016-12-06T02:20:24.892Z,16.91
2016-12-06T02:20:53.406Z,16.94
2016-12-06T02:21:21.724Z,17.03
2016-12-06T02:21:49.955Z,16.97
2016-12-06T02:22:18.120Z,16.99
2016-12-06T02:22:46.280Z,16.92
2016-12-06T02:23:14.672Z,17.02
2016-12-06T02:23:43.006Z,16.99
2016-12-06T02:24:11.296Z,16.95
2016-12-06T02:25:05.365Z,17.03
2016-12-06T02:25:33.586Z,17.02
2016-12-06T02:26:01.893Z,16.94
2016-12-06T02:26:30.196Z,17.03
2016-12-06T02:26:58.482Z,16.88
2016-12-06T02:27:26.806Z,17.03
2016-12-06T02:27:55.041Z,17.05
2016-12-06T02:28:23.184Z,17.06
2016-12-06T02:28:51.464Z,17.05
2016-12-06T02:29:19.374Z,17.07
2016-12-06T02:29:47.607Z,17.07
2016-12-06T02:30:15.882Z,17.12
2016-12-06T02:30:44.204Z,17.09
2016-12-06T02:31:12.511Z,17.15
2016-12-06T02:31:40.799Z,17.12
2016-12-06T02:32:09.205Z,17.2
2016-12-06T02:32:37.337Z,17.17
2016-12-06T02:33:05.549Z,17.17
2016-12-06T02:33:33.758Z,17.24
2016-12-06T02:34:02.061Z,17.18
2016-12-06T02:34:30.140Z,17.12
2016-12-06T02:34:58.287Z,17.09
2016-12-06T02:35:26.626Z,17.1
2016-12-06T02:35:54.938Z,17.13
2016-12-06T02:36:23.071Z,17.1
2016-12-06T02:36:51.189Z,17.07
2016-12-06T02:37:19.380Z,17.12
2016-12-06T02:37:47.580Z,17.05
2016-12-06T02:38:15.731Z,17.07
2016-12-06T02:38:43.905Z,17.07
2016-12-06T02:39:12.171Z,16.91
2016-12-06T02:39:40.168Z,16.95
2016-12-06T02:40:08.418Z,16.92
2016-12-06T02:40:36.680Z,16.95
2016-12-06T02:41:04.888Z,16.91
2016-12-06T02:41:32.994Z,16.85
2016-12-06T02:42:01.361Z,16.77
2016-12-06T02:42:29.504Z,16.87
2016-12-06T02:42:57.721Z,16.87
2016-12-06T02:43:26.019Z,16.82
2016-12-06T02:43:54.201Z,16.81
2016-12-06T02:44:22.407Z,16.7
2016-12-06T02:44:50.613Z,16.76
2016-12-06T02:45:19.110Z,16.72
2016-12-06T02:45:47.377Z,16.69
2016-12-06T02:46:15.750Z,16.73
2016-12-06T02:46:43.681Z,16.7
2016-12-06T02:47:11.892Z,16.66
2016-12-06T02:47:39.978Z,16.66
2016-12-06T02:48:08.055Z,16.66
2016-12-06T02:48:36.415Z,16.66
2016-12-06T02:49:04.677Z,16.63
2016-12-06T02:49:32.868Z,16.58
2016-12-06T02:50:01.192Z,16.62
2016-12-06T02:50:29.341Z,16.73
2016-12-06T02:50:57.527Z,16.69
2016-12-06T02:51:25.938Z,16.58
2016-12-06T02:51:54.269Z,16.67
2016-12-06T02:52:22.644Z,16.66
2016-12-06T02:52:50.983Z,16.63
2016-12-06T02:53:19.234Z,16.62
2016-12-06T02:53:47.450Z,16.63
2016-12-06T02:54:15.642Z,16.63
2016-12-06T02:54:43.968Z,16.65
2016-12-06T02:55:12.204Z,16.62
2016-12-06T02:55:40.511Z,16.66
2016-12-06T02:56:08.705Z,16.57
2016-12-06T02:56:36.921Z,16.48
2016-12-06T02:57:05.215Z,16.55
2016-12-06T02:57:33.350Z,16.4
2016-12-06T02:58:01.502Z,16.42
2016-12-06T02:58:29.979Z,16.48
2016-12-06T02:58:58.126Z,16.4
2016-12-06T02:59:26.350Z,16.34
2016-12-06T02:59:54.539Z,16.33
2016-12-06T03:00:22.855Z,16.33
2016-12-06T03:00:50.989Z,16.26
2016-12-06T03:01:19.358Z,16.25
2016-12-06T03:01:47.955Z,16.26
2016-12-06T03:02:16.181Z,16.22
2016-12-06T03:02:44.543Z,16.17
2016-12-06T03:03:12.925Z,16.18
2016-12-06T03:03:41.032Z,16.14
2016-12-06T03:04:09.256Z,16.21
2016-12-06T03:04:37.519Z,16.21
2016-12-06T03:05:05.734Z,16.22
2016-12-06T03:05:34.063Z,16.16
2016-12-06T03:06:02.240Z,16.16
2016-12-06T03:06:30.523Z,16.1
2016-12-06T03:06:58.773Z,16.11
2016-12-06T03:07:27.093Z,16.13
2016-12-06T03:07:55.524Z,16.13
2016-12-06T03:08:23.645Z,16.13
2016-12-06T03:08:51.790Z,16.13
2016-12-06T03:09:20.347Z,16.13
2016-12-06T03:09:48.616Z,16.11
2016-12-06T03:10:16.827Z,16.11
2016-12-06T03:10:45.155Z,16.14
2016-12-06T03:11:13.327Z,16.13
2016-12-06T03:11:41.536Z,16.13
2016-12-06T03:12:09.636Z,16.17
2016-12-06T03:12:37.812Z,16.16
2016-12-06T03:13:05.969Z,16.16
2016-12-06T03:13:34.466Z,16.13
2016-12-06T03:14:39.963Z,16.14
2016-12-06T03:15:08.196Z,16.06
2016-12-06T03:15:36.391Z,16
2016-12-06T03:16:04.609Z,16.08
2016-12-06T03:16:33.056Z,16.07
2016-12-06T03:17:01.232Z,16.07
2016-12-06T03:17:29.378Z,15.98
2016-12-06T03:17:57.552Z,16.02
2016-12-06T03:18:26.003Z,15.93
2016-12-06T03:18:54.229Z,15.89
2016-12-06T03:19:22.400Z,15.93
2016-12-06T03:19:50.703Z,15.93
2016-12-06T03:20:19.024Z,15.92
2016-12-06T03:20:47.092Z,15.96
2016-12-06T03:21:15.278Z,16.02
2016-12-06T03:21:43.465Z,16.07
2016-12-06T03:22:11.710Z,16.02
2016-12-06T03:22:40.027Z,16.07
2016-12-06T03:23:08.089Z,16
2016-12-06T03:23:36.339Z,15.93
2016-12-06T03:24:04.526Z,15.91
2016-12-06T03:24:32.746Z,15.96
2016-12-06T03:25:00.920Z,15.88
2016-12-06T03:25:29.178Z,15.86
2016-12-06T03:25:57.504Z,15.89
2016-12-06T03:26:25.992Z,15.78
2016-12-06T03:26:54.221Z,15.91
2016-12-06T03:27:22.422Z,15.77
2016-12-06T03:27:50.542Z,15.77
2016-12-06T03:28:18.790Z,15.89
2016-12-06T03:28:46.816Z,15.81
2016-12-06T03:29:35.430Z,15.73
2016-12-06T03:30:03.560Z,15.86
2016-12-06T03:30:31.655Z,15.86
2016-12-06T03:30:59.887Z,15.89
2016-12-06T03:31:28.275Z,15.84
2016-12-06T03:31:56.601Z,15.86
2016-12-06T03:32:24.875Z,15.91
2016-12-06T03:32:53.196Z,15.84
2016-12-06T03:33:21.668Z,15.95
2016-12-06T03:33:49.823Z,15.89
2016-12-06T03:34:17.894Z,15.92
2016-12-06T03:34:46.107Z,15.92
2016-12-06T03:35:14.385Z,15.92
2016-12-06T03:35:42.632Z,15.88
2016-12-06T03:36:10.823Z,15.86
2016-12-06T03:37:16.304Z,15.91
2016-12-06T03:37:44.463Z,15.88
2016-12-06T03:38:12.731Z,15.89
2016-12-06T03:38:40.995Z,15.86
2016-12-06T03:39:09.195Z,15.77
2016-12-06T03:39:37.425Z,15.84
2016-12-06T03:40:05.646Z,15.8
2016-12-06T03:40:33.946Z,15.86
2016-12-06T03:41:02.208Z,15.81
2016-12-06T03:41:30.604Z,15.83
2016-12-06T03:41:58.920Z,15.86
2016-12-06T03:42:27.184Z,15.89
2016-12-06T03:42:55.386Z,15.86
2016-12-06T03:43:23.577Z,15.86
2016-12-06T03:43:51.956Z,15.89
2016-12-06T03:44:19.850Z,15.89
2016-12-06T03:44:48.125Z,15.88
2016-12-06T03:45:16.431Z,15.84
2016-12-06T03:45:44.905Z,15.88
2016-12-06T03:46:13.043Z,15.86
2016-12-06T03:46:41.484Z,15.86
2016-12-06T03:47:09.586Z,15.78
2016-12-06T03:47:37.691Z,15.86
2016-12-06T03:48:05.806Z,15.8
2016-12-06T03:48:33.919Z,15.75
2016-12-06T03:49:02.047Z,15.71
2016-12-06T03:49:30.364Z,15.75
2016-12-06T03:49:58.728Z,15.78
2016-12-06T03:50:26.901Z,15.75
2016-12-06T03:50:55.246Z,15.74
2016-12-06T03:51:23.537Z,15.77
2016-12-06T03:51:51.796Z,15.65
2016-12-06T03:52:19.969Z,15.63
2016-12-06T03:52:47.986Z,15.65
2016-12-06T03:53:16.212Z,15.71
2016-12-06T03:53:44.426Z,15.6
2016-12-06T03:54:12.549Z,15.62
2016-12-06T03:54:40.908Z,15.67
2016-12-06T03:55:09.049Z,15.65
2016-12-06T03:55:37.240Z,15.7
2016-12-06T03:56:05.546Z,15.73
2016-12-06T03:56:33.828Z,15.59
2016-12-06T03:57:02.165Z,15.75
2016-12-06T03:57:30.555Z,15.65
2016-12-06T03:57:58.739Z,15.68
2016-12-06T03:58:27.017Z,15.63
2016-12-06T03:58:55.284Z,15.7
2016-12-06T03:59:23.501Z,15.67
2016-12-06T03:59:51.710Z,15.67
2016-12-06T04:00:20.030Z,15.73
2016-12-06T04:00:48.235Z,15.65
2016-12-06T04:01:16.355Z,15.62
2016-12-06T04:01:44.609Z,15.62
2016-12-06T04:02:12.843Z,15.56
2016-12-06T04:02:41.183Z,15.62
2016-12-06T04:03:09.464Z,15.59
2016-12-06T04:03:37.710Z,15.51
2016-12-06T04:04:06.001Z,15.47
2016-12-06T04:04:34.237Z,15.44
2016-12-06T04:05:02.429Z,15.45
2016-12-06T04:05:30.611Z,15.53
2016-12-06T04:05:58.956Z,15.49
2016-12-06T04:06:27.293Z,15.51
2016-12-06T04:07:32.927Z,15.51
2016-12-06T04:08:01.135Z,15.56
2016-12-06T04:08:29.262Z,15.52
2016-12-06T04:08:57.465Z,15.56
2016-12-06T04:09:25.693Z,15.51
2016-12-06T04:09:54.044Z,15.45
2016-12-06T04:10:22.274Z,15.56
2016-12-06T04:10:50.509Z,15.52
2016-12-06T04:11:18.753Z,15.56
2016-12-06T04:11:46.936Z,15.63
2016-12-06T04:12:15.351Z,15.6
2016-12-06T04:12:43.519Z,15.53
2016-12-06T04:13:11.701Z,15.56
2016-12-06T04:13:39.955Z,15.55
2016-12-06T04:14:07.955Z,15.53
2016-12-06T04:14:36.326Z,15.56
2016-12-06T04:15:04.515Z,15.58
2016-12-06T04:15:32.810Z,15.56
2016-12-06T04:16:01.088Z,15.55
2016-12-06T04:16:29.225Z,15.53
2016-12-06T04:16:57.491Z,15.51
2016-12-06T04:17:25.621Z,15.49
2016-12-06T04:17:53.922Z,15.58
2016-12-06T04:18:22.124Z,15.59
2016-12-06T04:18:50.366Z,15.52
2016-12-06T04:19:18.625Z,15.58
2016-12-06T04:19:46.714Z,15.55
2016-12-06T04:20:14.721Z,15.56
2016-12-06T04:20:43.045Z,15.59
2016-12-06T04:21:11.224Z,15.59
2016-12-06T04:21:39.466Z,15.55
2016-12-06T04:22:07.826Z,15.56
2016-12-06T04:22:36.067Z,15.51
2016-12-06T04:23:04.292Z,15.47
2016-12-06T04:23:32.622Z,15.59
2016-12-06T04:24:00.946Z,15.56
2016-12-06T04:24:29.098Z,15.51
2016-12-06T04:24:57.223Z,15.45
2016-12-06T04:25:25.302Z,15.52
2016-12-06T04:25:53.604Z,15.55
2016-12-06T04:26:21.807Z,15.52
2016-12-06T04:26:49.837Z,15.49
2016-12-06T04:27:18.034Z,15.51
2016-12-06T04:27:46.007Z,15.43
2016-12-06T04:28:14.218Z,15.47
2016-12-06T04:28:42.334Z,15.52
2016-12-06T04:29:10.575Z,15.49
2016-12-06T04:29:38.761Z,15.51
2016-12-06T04:30:06.982Z,15.45
2016-12-06T04:30:35.101Z,15.44
2016-12-06T04:31:03.454Z,15.53
2016-12-06T04:31:31.799Z,15.49
2016-12-06T04:31:59.985Z,15.51
2016-12-06T04:32:28.093Z,15.45
2016-12-06T04:32:56.319Z,15.51
2016-12-06T04:33:24.477Z,15.38
2016-12-06T04:33:52.624Z,15.49
2016-12-06T04:34:20.789Z,15.49
2016-12-06T04:34:48.981Z,15.47
2016-12-06T04:35:17.132Z,15.4
2016-12-06T04:35:45.356Z,15.4
2016-12-06T04:36:13.665Z,15.34
2016-12-06T04:36:41.880Z,15.47
2016-12-06T04:37:10.159Z,15.4
2016-12-06T04:37:38.479Z,15.37
2016-12-06T04:38:06.727Z,15.4
2016-12-06T04:38:35.030Z,15.26
2016-12-06T04:39:03.055Z,15.3
2016-12-06T04:39:31.293Z,15.27
2016-12-06T04:39:59.559Z,15.25
2016-12-06T04:40:27.722Z,15.23
2016-12-06T04:40:55.838Z,15.3
2016-12-06T04:41:24.189Z,15.27
2016-12-06T04:41:52.379Z,15.3
2016-12-06T04:42:20.653Z,15.26
2016-12-06T04:42:48.966Z,15.3
2016-12-06T04:43:17.246Z,15.23
2016-12-06T04:43:45.474Z,15.27
2016-12-06T04:44:13.765Z,15.27
2016-12-06T04:44:41.987Z,15.31
2016-12-06T04:45:10.100Z,15.27
2016-12-06T04:45:38.226Z,15.3
2016-12-06T04:46:06.531Z,15.27
2016-12-06T04:46:34.860Z,15.22
2016-12-06T04:47:02.791Z,15.16
2016-12-06T04:47:31.203Z,15.16
2016-12-06T04:47:59.412Z,15.19
2016-12-06T04:48:27.662Z,15.25
2016-12-06T04:48:55.718Z,15.18
2016-12-06T04:49:23.693Z,15.12
2016-12-06T04:49:51.903Z,15.18
2016-12-06T04:50:20.052Z,15.19
2016-12-06T04:50:48.173Z,15.16
2016-12-06T04:51:16.509Z,15.22
2016-12-06T04:51:44.659Z,15.25
2016-12-06T04:52:12.744Z,15.27
2016-12-06T04:52:41.156Z,15.3
2016-12-06T04:53:09.384Z,15.23
2016-12-06T04:53:37.656Z,15.26
2016-12-06T04:54:05.871Z,15.23
2016-12-06T04:54:34.042Z,15.19
2016-12-06T04:55:02.144Z,15.25
2016-12-06T04:55:30.343Z,15.22
2016-12-06T04:55:58.635Z,15.22
2016-12-06T04:56:26.790Z,15.18
2016-12-06T04:56:55.079Z,15.25
2016-12-06T04:57:23.230Z,15.18
2016-12-06T04:57:51.450Z,15.16
2016-12-06T04:58:19.664Z,15.16
2016-12-06T04:58:47.901Z,15.16
2016-12-06T04:59:16.196Z,15.19
2016-12-06T04:59:44.226Z,15.23
2016-12-06T05:00:12.340Z,15.3
2016-12-06T05:00:40.496Z,15.33
2016-12-06T05:01:08.515Z,15.35
2016-12-06T05:01:36.576Z,15.23
2016-12-06T05:02:04.804Z,15.3
2016-12-06T05:02:33.037Z,15.25
2016-12-06T05:03:01.367Z,15.25
2016-12-06T05:03:29.685Z,15.3
2016-12-06T05:03:57.991Z,15.25
2016-12-06T05:04:26.228Z,15.34
2016-12-06T05:04:54.517Z,15.37
2016-12-06T05:05:22.602Z,15.34
2016-12-06T05:05:50.842Z,15.41
2016-12-06T05:06:19.094Z,15.4
2016-12-06T05:06:47.396Z,15.27
2016-12-06T05:07:15.531Z,15.35
2016-12-06T05:07:43.741Z,15.38
2016-12-06T05:08:11.864Z,15.35
2016-12-06T05:08:40.074Z,15.37
2016-12-06T05:09:08.146Z,15.33
2016-12-06T05:09:36.198Z,15.33
2016-12-06T05:10:04.154Z,15.33
2016-12-06T05:10:58.319Z,15.23
2016-12-06T05:11:26.496Z,15.3
2016-12-06T05:11:54.795Z,15.26
2016-12-06T05:12:43.610Z,15.27
2016-12-06T05:13:11.830Z,15.31
2016-12-06T05:13:40.177Z,15.37
2016-12-06T05:14:08.350Z,15.34
2016-12-06T05:14:36.577Z,15.31
2016-12-06T05:15:04.882Z,15.33
2016-12-06T05:15:33.104Z,15.27
2016-12-06T05:16:01.433Z,15.27
2016-12-06T05:16:29.603Z,15.26
2016-12-06T05:16:57.834Z,15.3
2016-12-06T05:17:25.898Z,15.26
2016-12-06T05:17:54.245Z,15.19
2016-12-06T05:18:22.415Z,15.3
2016-12-06T05:18:50.581Z,15.22
2016-12-06T05:19:18.747Z,15.18
2016-12-06T05:19:46.946Z,15.19
2016-12-06T05:20:15.117Z,15.23
2016-12-06T05:20:43.353Z,15.19
2016-12-06T05:21:11.366Z,15.3
2016-12-06T05:21:39.684Z,15.19
2016-12-06T05:22:07.756Z,15.15
2016-12-06T05:22:36.111Z,15.15
2016-12-06T05:23:04.516Z,15.16
2016-12-06T05:23:32.610Z,15.07
2016-12-06T05:24:00.957Z,15.04
2016-12-06T05:24:29.066Z,15
2016-12-06T05:24:57.217Z,14.97
2016-12-06T05:25:25.439Z,14.95
2016-12-06T05:25:53.581Z,14.89
2016-12-06T05:26:21.737Z,14.97
2016-12-06T05:26:49.955Z,14.95
2016-12-06T05:27:18.178Z,14.94
2016-12-06T05:27:46.333Z,14.9
2016-12-06T05:28:14.469Z,14.97
2016-12-06T05:28:42.696Z,14.94
2016-12-06T05:29:10.954Z,14.98
2016-12-06T05:29:59.564Z,14.98
2016-12-06T05:30:27.794Z,14.98
2016-12-06T05:30:55.922Z,14.95
2016-12-06T05:31:24.214Z,14.94
2016-12-06T05:31:52.473Z,14.87
2016-12-06T05:32:20.615Z,14.83
2016-12-06T05:32:48.852Z,14.89
2016-12-06T05:33:17.089Z,14.9
2016-12-06T05:33:45.347Z,14.8
2016-12-06T05:34:13.519Z,14.85
2016-12-06T05:34:41.819Z,14.82
2016-12-06T05:35:47.233Z,14.77
2016-12-06T05:36:15.454Z,14.74
2016-12-06T05:36:43.780Z,14.79
2016-12-06T05:37:12.088Z,14.75
2016-12-06T05:37:40.185Z,14.79
2016-12-06T05:38:08.407Z,14.77
2016-12-06T05:38:36.717Z,14.82
2016-12-06T05:39:04.917Z,14.74
2016-12-06T05:39:33.009Z,14.74
2016-12-06T05:40:01.286Z,14.85
2016-12-06T05:40:29.594Z,14.9
2016-12-06T05:40:57.899Z,14.83
2016-12-06T05:41:26.086Z,14.83
2016-12-06T05:41:54.298Z,14.82
2016-12-06T05:42:22.608Z,14.86
2016-12-06T05:42:50.914Z,14.79
2016-12-06T05:43:19.182Z,14.83
2016-12-06T05:43:47.305Z,14.82
2016-12-06T05:44:15.547Z,14.74
2016-12-06T05:44:43.718Z,14.83
2016-12-06T05:45:11.903Z,14.8
2016-12-06T05:45:40.027Z,14.85
2016-12-06T05:46:08.338Z,14.87
2016-12-06T05:47:13.637Z,14.85
2016-12-06T05:47:41.843Z,14.77
2016-12-06T05:48:10.111Z,14.74
2016-12-06T05:48:38.412Z,14.75
2016-12-06T05:49:06.569Z,14.71
2016-12-06T05:49:34.676Z,14.66
2016-12-06T05:50:02.893Z,14.79
2016-12-06T05:50:30.933Z,14.7
2016-12-06T05:50:59.190Z,14.79
2016-12-06T05:51:27.350Z,14.75
2016-12-06T05:51:55.587Z,14.75
2016-12-06T05:52:23.816Z,14.71
2016-12-06T05:52:52.022Z,14.7
2016-12-06T05:53:20.191Z,14.71
2016-12-06T05:53:48.523Z,14.66
2016-12-06T05:54:16.856Z,14.67
2016-12-06T05:54:44.991Z,14.69
2016-12-06T05:55:13.335Z,14.63
2016-12-06T05:55:41.636Z,14.59
2016-12-06T05:56:47.127Z,14.59
2016-12-06T05:57:15.202Z,14.63
2016-12-06T05:58:20.981Z,14.63
2016-12-06T05:58:49.100Z,14.61
2016-12-06T05:59:17.332Z,14.64
2016-12-06T05:59:45.480Z,14.63
2016-12-06T06:00:13.770Z,14.69
2016-12-06T06:00:41.985Z,14.64
2016-12-06T06:01:10.242Z,14.64
2016-12-06T06:01:38.281Z,14.66
2016-12-06T06:02:06.397Z,14.63
2016-12-06T06:02:34.550Z,14.6
2016-12-06T06:03:02.728Z,14.57
2016-12-06T06:03:31.299Z,14.53
2016-12-06T06:03:59.521Z,14.53
2016-12-06T06:04:27.595Z,14.57
2016-12-06T06:04:55.931Z,14.51
2016-12-06T06:05:24.196Z,14.52
2016-12-06T06:05:52.457Z,14.49
2016-12-06T06:06:20.784Z,14.45
2016-12-06T06:06:48.933Z,14.53
2016-12-06T06:07:17.241Z,14.53
2016-12-06T06:07:45.366Z,14.53
2016-12-06T06:08:13.486Z,14.57
2016-12-06T06:08:41.787Z,14.56
2016-12-06T06:09:09.942Z,14.52
2016-12-06T06:09:38.043Z,14.52
2016-12-06T06:10:06.082Z,14.52
2016-12-06T06:10:34.336Z,14.48
2016-12-06T06:11:02.595Z,14.45
2016-12-06T06:11:30.912Z,14.45
2016-12-06T06:11:59.111Z,14.46
2016-12-06T06:12:27.216Z,14.48
2016-12-06T06:12:55.414Z,14.42
2016-12-06T06:13:23.628Z,14.48
2016-12-06T06:13:51.967Z,14.46